createdAt,value
2022-11-18T00:04:10.684Z,2.63
2022-11-18T00:06:40.960Z,2.55
2022-11-18T00:09:11.845Z,3.38
2022-11-18T00:11:57.189Z,3.60
2022-11-18T00:14:29.108Z,3.92
2022-11-18T00:17:01.589Z,3.25
2022-11-18T00:19:33.280Z,2.28
2022-11-18T00:22:04.029Z,3.47
2022-11-18T00:24:34.538Z,2.80
2022-11-18T00:27:07.506Z,7.55
2022-11-18T00:29:38.146Z,2.30
2022-11-18T00:32:09.373Z,4.30
2022-11-18T00:37:09.528Z,3.40
2022-11-18T00:39:39.602Z,4.43
2022-11-18T00:42:24.801Z,3.72
2022-11-18T00:44:54.970Z,3.72
2022-11-18T00:47:25.118Z,2.28
2022-11-18T00:49:55.305Z,3.83
2022-11-18T00:52:25.543Z,3.42
2022-11-18T00:54:55.692Z,6.10
2022-11-18T00:57:28.405Z,4.45
2022-11-18T00:59:58.535Z,3.33
2022-11-18T01:02:28.795Z,3.35
2022-11-18T01:04:58.844Z,4.85
2022-11-18T01:07:29.479Z,2.03
2022-11-18T01:09:59.926Z,3.60
2022-11-18T01:12:47.933Z,4.45
2022-11-18T01:15:20.390Z,3.83
2022-11-18T01:17:50.448Z,3.15
2022-11-18T01:20:20.812Z,3.70
2022-11-18T01:22:50.917Z,4.85
2022-11-18T01:25:21.052Z,3.05
2022-11-18T01:27:53.841Z,3.58
2022-11-18T01:30:23.947Z,2.78
2022-11-18T01:32:54.381Z,6.20
2022-11-18T01:35:25.364Z,3.33
2022-11-18T01:37:55.467Z,6.15
2022-11-18T01:40:25.567Z,4.28
2022-11-18T01:42:58.721Z,4.75
2022-11-18T01:45:35.541Z,3.75
2022-11-18T01:48:11.305Z,3.28
2022-11-18T01:50:46.900Z,6.10
2022-11-18T01:53:23.131Z,2.03
2022-11-18T01:55:56.478Z,3.85
2022-11-18T01:58:33.750Z,4.40
2022-11-18T02:01:04.364Z,6.80
2022-11-18T02:03:36.225Z,4.80
2022-11-18T02:06:09.503Z,5.43
2022-11-18T02:08:40.447Z,5.15
2022-11-18T02:11:35.064Z,6.95
2022-11-18T02:14:10.949Z,4.60
2022-11-18T02:16:56.533Z,2.80
2022-11-18T02:19:44.377Z,4.10
2022-11-18T02:22:34.889Z,5.57
2022-11-18T02:25:11.518Z,6.57
2022-11-18T02:28:19.735Z,2.90
2022-11-18T02:31:00.999Z,7.95
2022-11-18T02:33:39.645Z,8.63
2022-11-18T02:36:16.084Z,3.50
2022-11-18T02:38:49.419Z,3.60
2022-11-18T02:41:24.018Z,3.58
2022-11-18T02:43:57.132Z,3.42
2022-11-18T02:46:34.264Z,5.38
2022-11-18T02:49:07.318Z,3.70
2022-11-18T02:51:39.364Z,3.83
2022-11-18T02:54:12.262Z,3.20
2022-11-18T02:56:43.071Z,4.13
2022-11-18T02:59:13.138Z,2.95
2022-11-18T03:01:45.914Z,4.72
2022-11-18T03:04:18.256Z,3.53
2022-11-18T03:06:52.883Z,4.47
2022-11-18T03:09:30.049Z,5.68
2022-11-18T03:12:08.940Z,4.32
2022-11-18T03:14:46.487Z,4.45
2022-11-18T03:17:28.839Z,3.90
2022-11-18T03:20:13.336Z,2.88
2022-11-18T03:22:48.872Z,5.55
2022-11-18T03:25:23.938Z,3.22
2022-11-18T03:27:59.944Z,6.40
2022-11-18T03:30:41.611Z,3.05
2022-11-18T03:33:20.486Z,3.30
2022-11-18T03:35:53.057Z,2.63
2022-11-18T03:38:32.222Z,5.03
2022-11-18T03:41:07.077Z,5.25
2022-11-18T03:43:42.943Z,3.60
2022-11-18T03:46:17.639Z,3.25
2022-11-18T03:48:54.712Z,3.03
2022-11-18T03:51:29.143Z,3.03
2022-11-18T03:54:11.567Z,2.83
2022-11-18T03:56:50.457Z,4.78
2022-11-18T03:59:29.545Z,4.40
2022-11-18T04:02:06.786Z,4.10
2022-11-18T04:04:40.193Z,4.32
2022-11-18T04:07:19.464Z,6.45
2022-11-18T04:10:02.054Z,7.32
2022-11-18T04:12:38.234Z,4.53
2022-11-18T04:15:09.538Z,6.38
2022-11-18T04:17:40.568Z,3.03
2022-11-18T04:20:18.869Z,4.38
2022-11-18T04:22:49.189Z,3.47
2022-11-18T04:25:19.492Z,4.90
2022-11-18T04:27:49.656Z,5.47
2022-11-18T04:30:20.913Z,3.75
2022-11-18T04:35:23.549Z,2.38
2022-11-18T04:37:53.634Z,6.20
2022-11-18T04:40:23.773Z,5.13
2022-11-18T04:42:53.918Z,4.22
2022-11-18T04:45:23.946Z,3.72
2022-11-18T04:47:57.630Z,4.88
2022-11-18T04:50:33.045Z,3.75
2022-11-18T04:53:03.083Z,4.20
2022-11-18T04:55:33.138Z,3.55
2022-11-18T04:58:03.139Z,4.18
2022-11-18T05:00:33.421Z,5.43
2022-11-18T05:03:03.496Z,4.70
2022-11-18T05:05:37.969Z,3.50
2022-11-18T05:08:08.851Z,4.18
2022-11-18T05:10:40.910Z,5.00
2022-11-18T05:13:08.313Z,2.75
2022-11-18T05:15:38.323Z,4.22
2022-11-18T05:18:08.502Z,4.80
2022-11-18T05:20:41.839Z,4.78
2022-11-18T05:23:11.987Z,4.40
2022-11-18T05:25:41.993Z,3.25
2022-11-18T05:28:12.118Z,4.03
2022-11-18T05:30:42.336Z,5.38
2022-11-18T05:33:12.448Z,4.97
2022-11-18T05:35:45.077Z,5.32
2022-11-18T05:38:15.325Z,7.97
2022-11-18T05:40:46.165Z,4.90
2022-11-18T05:43:13.596Z,3.50
2022-11-18T05:45:46.070Z,5.53
2022-11-18T05:48:16.169Z,6.57
2022-11-18T05:50:51.230Z,4.20
2022-11-18T05:53:22.667Z,4.82
2022-11-18T05:55:58.273Z,4.47
2022-11-18T05:58:29.207Z,7.47
2022-11-18T06:01:01.377Z,10.00
2022-11-18T06:03:34.470Z,5.88
2022-11-18T06:06:10.247Z,6.43
2022-11-18T06:08:53.927Z,2.55
2022-11-18T06:11:24.809Z,4.20
2022-11-18T06:14:00.616Z,5.95
2022-11-18T06:16:39.466Z,6.95
2022-11-18T06:19:11.064Z,3.25
2022-11-18T06:21:43.738Z,5.25
2022-11-18T06:24:14.221Z,4.55
2022-11-18T06:26:45.139Z,3.92
2022-11-18T06:29:21.710Z,3.60
2022-11-18T06:31:56.112Z,6.35
2022-11-18T06:34:26.511Z,4.85
2022-11-18T06:36:59.396Z,5.72
2022-11-18T06:39:29.587Z,6.43
2022-11-18T06:41:59.808Z,5.35
2022-11-18T06:44:27.339Z,6.10
2022-11-18T06:47:00.272Z,4.65
2022-11-18T06:49:31.176Z,7.20
2022-11-18T06:52:04.843Z,5.97
2022-11-18T06:54:34.983Z,4.28
2022-11-18T06:57:05.122Z,6.63
2022-11-18T06:59:35.251Z,3.55
2022-11-18T07:02:05.809Z,3.45
2022-11-18T07:04:39.694Z,4.35
2022-11-18T07:07:12.448Z,5.40
2022-11-18T07:09:42.513Z,6.18
2022-11-18T07:12:12.627Z,8.02
2022-11-18T07:14:42.638Z,6.03
2022-11-18T07:17:12.816Z,5.72
2022-11-18T07:19:42.887Z,5.88
2022-11-18T07:22:15.604Z,9.55
2022-11-18T07:24:45.722Z,5.40
2022-11-18T07:27:16.028Z,5.35
2022-11-18T07:29:46.070Z,7.63
2022-11-18T07:32:16.211Z,6.57
2022-11-18T07:34:46.398Z,3.10
2022-11-18T07:37:19.019Z,5.13
2022-11-18T07:39:49.148Z,3.58
2022-11-18T07:42:19.354Z,8.00
2022-11-18T07:44:49.425Z,7.53
2022-11-18T07:47:19.512Z,4.70
2022-11-18T07:49:49.487Z,4.50
2022-11-18T07:52:22.274Z,5.93
2022-11-18T07:54:52.339Z,8.73
2022-11-18T07:57:22.423Z,4.57
2022-11-18T07:59:52.412Z,3.17
2022-11-18T08:02:22.636Z,5.88
2022-11-18T08:04:52.773Z,7.35
2022-11-18T08:07:25.755Z,2.00
2022-11-18T08:09:55.757Z,6.50
2022-11-18T08:12:25.808Z,2.22
2022-11-18T08:14:55.840Z,8.57
2022-11-18T08:17:25.936Z,5.43
2022-11-18T08:19:56.102Z,5.53
2022-11-18T08:22:28.814Z,6.20
2022-11-18T08:24:58.903Z,4.10
2022-11-18T08:27:29.197Z,6.15
2022-11-18T08:29:59.290Z,6.20
2022-11-18T08:32:32.802Z,3.30
2022-11-18T08:35:08.067Z,3.90
2022-11-18T08:37:43.562Z,5.90
2022-11-18T08:40:14.578Z,7.25
2022-11-18T08:42:44.723Z,6.10
2022-11-18T08:45:15.275Z,4.07
2022-11-18T08:47:45.650Z,6.00
2022-11-18T08:50:15.971Z,4.88
2022-11-18T08:52:48.842Z,3.97
2022-11-18T08:55:19.228Z,4.70
2022-11-18T08:57:50.016Z,5.85
2022-11-18T09:00:21.456Z,5.15
2022-11-18T09:02:52.679Z,3.40
2022-11-18T09:05:23.081Z,5.35
2022-11-18T09:07:55.824Z,5.93
2022-11-18T09:10:25.908Z,3.85
2022-11-18T09:13:07.092Z,5.57
2022-11-18T09:15:46.956Z,4.90
2022-11-18T09:18:17.006Z,3.50
2022-11-18T09:20:56.354Z,5.78
2022-11-18T09:23:29.403Z,4.10
2022-11-18T09:26:03.413Z,8.07
2022-11-18T09:28:34.162Z,7.53
2022-11-18T09:31:08.166Z,6.53
2022-11-18T09:33:38.703Z,5.68
2022-11-18T09:36:15.050Z,5.32
2022-11-18T09:38:51.848Z,6.28
2022-11-18T09:41:43.094Z,5.05
2022-11-18T09:44:24.590Z,5.57
2022-11-18T09:47:07.332Z,4.72
2022-11-18T09:49:40.058Z,5.32
2022-11-18T09:52:19.617Z,4.68
2022-11-18T09:54:52.913Z,5.25
2022-11-18T09:57:26.214Z,3.85
2022-11-18T09:59:56.701Z,5.70
2022-11-18T10:02:45.478Z,4.25
2022-11-18T10:05:19.767Z,4.65
2022-11-18T10:08:02.594Z,4.10
2022-11-18T10:10:42.934Z,4.35
2022-11-18T10:13:21.604Z,6.18
2022-11-18T10:16:03.319Z,2.55
2022-11-18T10:21:46.233Z,6.25
2022-11-18T10:24:21.828Z,8.25
2022-11-18T10:26:58.651Z,5.25
2022-11-18T10:29:29.232Z,5.65
2022-11-18T10:32:05.729Z,4.07
2022-11-18T10:34:37.261Z,7.40
2022-11-18T10:37:16.342Z,6.53
2022-11-18T10:39:54.036Z,5.43
2022-11-18T10:44:59.463Z,6.18
2022-11-18T10:47:34.054Z,8.70
2022-11-18T10:50:06.056Z,6.70
2022-11-18T10:52:36.160Z,7.95
2022-11-18T10:55:23.854Z,6.57
2022-11-18T10:58:00.727Z,5.60
2022-11-18T11:00:46.490Z,4.85
2022-11-18T11:03:34.963Z,5.32
2022-11-18T11:06:40.810Z,4.53
2022-11-18T11:09:13.190Z,6.63
2022-11-18T11:11:45.382Z,6.07
2022-11-18T11:14:31.649Z,7.70
2022-11-18T11:17:06.839Z,5.90
2022-11-18T11:19:45.008Z,5.00
2022-11-18T11:22:15.640Z,6.82
2022-11-18T11:24:45.942Z,6.15
2022-11-18T11:30:24.781Z,8.43
2022-11-18T11:33:25.405Z,6.35
2022-11-18T11:36:12.094Z,4.40
2022-11-18T11:39:01.316Z,9.27
2022-11-18T11:41:45.066Z,5.97
2022-11-18T11:44:29.662Z,6.10
2022-11-18T11:47:32.510Z,6.22
2022-11-18T11:50:08.610Z,8.10
2022-11-18T11:52:48.351Z,8.10
2022-11-18T11:55:28.660Z,4.95
2022-11-18T11:58:10.739Z,5.75
2022-11-18T12:00:44.925Z,4.47
2022-11-18T12:03:32.761Z,7.40
2022-11-18T12:06:02.815Z,7.78
2022-11-18T12:08:35.443Z,4.57
2022-11-18T12:11:16.342Z,5.00
2022-11-18T12:13:54.790Z,6.85
2022-11-18T12:16:33.065Z,6.72
2022-11-18T12:19:12.588Z,4.32
2022-11-18T12:21:58.539Z,5.57
2022-11-18T12:24:34.347Z,6.30
2022-11-18T12:27:06.007Z,7.78
2022-11-18T12:29:44.149Z,15.02
2022-11-18T12:32:31.450Z,4.63
2022-11-18T12:35:24.406Z,6.78
2022-11-18T12:38:03.003Z,5.72
2022-11-18T12:40:53.152Z,5.10
2022-11-18T12:43:51.059Z,6.40
2022-11-18T12:46:53.698Z,5.18
2022-11-18T12:49:53.711Z,5.82
2022-11-18T12:52:59.749Z,4.60
2022-11-18T12:55:40.489Z,4.63
2022-11-18T12:58:26.433Z,5.20
2022-11-18T13:01:08.587Z,6.38
2022-11-18T13:03:39.225Z,3.80
2022-11-18T13:06:17.892Z,4.50
2022-11-18T13:08:55.161Z,3.58
2022-11-18T13:11:38.140Z,4.63
2022-11-18T13:14:22.322Z,4.82
2022-11-18T13:17:05.148Z,6.00
2022-11-18T13:19:35.340Z,5.20
2022-11-18T13:22:21.447Z,4.68
2022-11-18T13:24:56.587Z,6.88
2022-11-18T13:27:38.696Z,5.55
2022-11-18T13:30:13.624Z,6.47
2022-11-18T13:32:47.661Z,5.15
2022-11-18T13:35:21.550Z,6.47
2022-11-18T13:37:54.117Z,4.43
2022-11-18T13:40:29.887Z,3.63
2022-11-18T13:43:00.492Z,6.88
2022-11-18T13:45:32.658Z,7.07
2022-11-18T13:48:08.457Z,5.20
2022-11-18T13:50:46.840Z,6.20
2022-11-18T13:53:29.265Z,7.45
2022-11-18T13:56:04.519Z,6.57
2022-11-18T13:59:10.558Z,8.38
2022-11-18T14:01:34.029Z,5.80
2022-11-18T14:04:05.626Z,9.07
2022-11-18T14:06:37.617Z,8.10
2022-11-18T14:09:09.875Z,6.18
2022-11-18T14:11:45.410Z,6.80
2022-11-18T14:14:30.750Z,7.28
2022-11-18T14:17:20.836Z,6.70
2022-11-18T14:19:52.881Z,6.47
2022-11-18T14:22:25.030Z,5.80
2022-11-18T14:25:00.359Z,4.45
2022-11-18T14:27:44.258Z,6.88
2022-11-18T14:30:30.478Z,6.00
2022-11-18T14:33:24.318Z,6.32
2022-11-18T14:36:00.279Z,7.85
2022-11-18T14:38:57.420Z,6.53
2022-11-18T14:41:45.501Z,6.85
2022-11-18T14:44:18.826Z,9.18
2022-11-18T14:46:52.382Z,6.13
2022-11-18T14:49:24.606Z,7.20
2022-11-18T14:51:55.692Z,6.78
2022-11-18T14:57:00.965Z,8.80
2022-11-18T14:59:33.816Z,6.53
2022-11-18T15:02:04.028Z,6.93
2022-11-18T15:04:34.055Z,7.15
2022-11-18T15:07:04.206Z,5.90
2022-11-18T15:09:34.426Z,6.40
2022-11-18T15:12:04.890Z,9.57
2022-11-18T15:14:37.853Z,7.80
2022-11-18T15:17:08.410Z,9.48
2022-11-18T15:19:38.553Z,8.00
2022-11-18T15:22:08.903Z,6.78
2022-11-18T15:24:39.008Z,8.07
2022-11-18T15:27:09.097Z,10.10
2022-11-18T15:29:43.054Z,9.02
2022-11-18T15:32:13.250Z,5.80
2022-11-18T15:34:43.442Z,11.10
2022-11-18T15:37:15.165Z,12.85
2022-11-18T15:39:45.398Z,7.53
2022-11-18T15:42:20.461Z,12.85
2022-11-18T15:47:25.654Z,6.05
2022-11-18T15:49:55.875Z,5.80
2022-11-18T15:52:27.331Z,6.00
2022-11-18T15:54:57.659Z,12.02
2022-11-18T15:57:27.842Z,9.25
2022-11-18T16:00:00.651Z,7.97
2022-11-18T16:02:30.753Z,5.72
2022-11-18T16:05:00.842Z,8.48
2022-11-18T16:07:30.958Z,7.93
2022-11-18T16:10:13.512Z,12.25
2022-11-18T16:12:49.579Z,9.98
2022-11-18T16:15:34.979Z,7.28
2022-11-18T16:18:05.708Z,7.30
2022-11-18T16:20:36.080Z,11.73
2022-11-18T16:23:06.504Z,11.45
2022-11-18T16:25:36.704Z,8.73
2022-11-18T16:28:07.577Z,12.55
2022-11-18T16:30:53.176Z,10.55
2022-11-18T16:33:23.186Z,13.38
2022-11-18T16:35:53.197Z,13.90
2022-11-18T16:38:23.387Z,13.77
2022-11-18T16:40:58.582Z,12.85
2022-11-18T16:43:29.574Z,14.10
2022-11-18T16:48:31.930Z,8.38
2022-11-18T16:51:21.035Z,8.40
2022-11-18T16:53:55.709Z,8.75
2022-11-18T16:56:27.615Z,12.18
2022-11-18T16:59:01.838Z,10.30
2022-11-18T17:01:35.513Z,39.53
2022-11-18T17:04:05.663Z,7.70
2022-11-18T17:06:36.035Z,9.65
2022-11-18T17:09:06.187Z,9.85
2022-11-18T17:11:36.705Z,12.70
2022-11-18T17:14:06.714Z,8.13
2022-11-18T17:16:39.442Z,11.27
2022-11-18T17:19:11.969Z,9.73
2022-11-18T17:21:42.565Z,8.77
2022-11-18T17:24:13.485Z,7.50
2022-11-18T17:26:43.662Z,7.72
2022-11-18T17:29:14.639Z,6.88
2022-11-18T17:31:48.072Z,13.60
2022-11-18T17:34:19.124Z,9.00
2022-11-18T17:36:49.679Z,18.23
2022-11-18T17:39:20.934Z,10.60
2022-11-18T17:42:03.734Z,10.23
2022-11-18T17:44:33.752Z,13.70
2022-11-18T17:47:07.187Z,8.05
2022-11-18T17:49:37.330Z,11.98
2022-11-18T17:52:07.966Z,7.47
2022-11-18T17:54:38.007Z,8.73
2022-11-18T17:57:08.171Z,12.50
2022-11-18T17:59:38.314Z,10.63
2022-11-18T18:02:12.344Z,8.23
2022-11-18T18:04:42.381Z,13.60
2022-11-18T18:07:12.446Z,10.98
2022-11-18T18:09:42.602Z,8.98
2022-11-18T18:12:24.989Z,21.35
2022-11-18T18:14:55.109Z,12.02
2022-11-18T18:17:27.936Z,8.23
2022-11-18T18:19:58.163Z,8.52
2022-11-18T18:22:30.891Z,15.32
2022-11-18T18:25:01.151Z,12.82
2022-11-18T18:27:33.691Z,9.55
2022-11-18T18:30:03.587Z,10.93
2022-11-18T18:32:36.962Z,8.38
2022-11-18T18:35:07.727Z,15.75
2022-11-18T18:37:38.824Z,15.85
2022-11-18T18:42:39.604Z,11.57
2022-11-18T18:45:24.234Z,12.77
2022-11-18T18:47:56.822Z,10.65
2022-11-18T18:50:29.818Z,10.90
2022-11-18T18:53:00.077Z,13.52
2022-11-18T18:55:30.377Z,11.45
2022-11-18T18:58:00.511Z,11.15
2022-11-18T19:00:30.512Z,12.80
2022-11-18T19:03:03.278Z,12.25
2022-11-18T19:05:53.934Z,13.50
2022-11-18T19:08:23.511Z,16.08
2022-11-18T19:10:53.547Z,16.65
2022-11-18T19:13:20.987Z,16.40
2022-11-18T19:15:51.223Z,20.83
2022-11-18T19:18:24.401Z,15.23
2022-11-18T19:20:54.447Z,15.25
2022-11-18T19:23:26.008Z,19.10
2022-11-18T19:26:01.928Z,17.48
2022-11-18T19:28:32.167Z,19.77
2022-11-18T19:31:02.800Z,19.63
2022-11-18T19:33:35.729Z,15.75
2022-11-18T19:36:06.007Z,16.65
2022-11-18T19:38:37.048Z,17.98
2022-11-18T19:41:08.486Z,18.80
2022-11-18T19:43:39.124Z,14.35
2022-11-18T19:46:10.800Z,13.80
2022-11-18T19:48:43.537Z,17.40
2022-11-18T19:51:15.180Z,11.85
2022-11-18T19:53:46.349Z,19.15
2022-11-18T19:56:19.451Z,21.50
2022-11-18T19:58:51.364Z,15.82
2022-11-18T20:01:23.437Z,14.75
2022-11-18T20:03:58.046Z,17.30
2022-11-18T20:06:31.928Z,13.30
2022-11-18T20:09:02.231Z,16.95
2022-11-18T20:11:32.253Z,12.52
2022-11-18T20:14:02.351Z,16.33
2022-11-18T20:16:32.500Z,14.45
2022-11-18T20:19:10.804Z,13.73
2022-11-18T20:21:49.557Z,13.75
2022-11-18T20:24:22.417Z,12.60
2022-11-18T20:26:52.428Z,10.80
2022-11-18T20:29:22.698Z,14.68
2022-11-18T20:31:53.739Z,18.50
2022-11-18T20:34:26.457Z,13.85
2022-11-18T20:36:56.776Z,14.27
2022-11-18T20:39:28.799Z,13.70
2022-11-18T20:42:11.283Z,12.30
2022-11-18T20:44:41.406Z,12.68
2022-11-18T20:47:13.119Z,11.52
2022-11-18T20:49:45.824Z,11.07
2022-11-18T20:52:15.890Z,12.95
2022-11-18T20:54:49.086Z,10.32
2022-11-18T20:57:24.005Z,13.57
2022-11-18T20:59:54.205Z,11.18
2022-11-18T21:02:26.432Z,12.20
2022-11-18T21:05:02.149Z,13.68
2022-11-18T21:07:32.394Z,17.38
2022-11-18T21:10:02.681Z,16.70
2022-11-18T21:12:34.628Z,13.50
2022-11-18T21:15:05.091Z,13.32
2022-11-18T21:17:38.781Z,17.63
2022-11-18T21:20:32.748Z,18.25
2022-11-18T21:23:00.193Z,12.93
2022-11-18T21:25:36.839Z,14.93
2022-11-18T21:28:07.508Z,14.40
2022-11-18T21:30:39.165Z,14.85
2022-11-18T21:33:09.371Z,15.45
2022-11-18T21:35:42.257Z,14.43
2022-11-18T21:38:12.358Z,16.40
2022-11-18T21:40:42.581Z,17.33
2022-11-18T21:43:25.033Z,16.45
2022-11-18T21:46:04.577Z,13.50
2022-11-18T21:48:34.917Z,16.55
2022-11-18T21:51:09.651Z,17.33
2022-11-18T21:53:40.095Z,15.77
2022-11-18T21:56:13.855Z,18.92
2022-11-18T21:58:44.835Z,18.38
2022-11-18T22:01:17.281Z,16.48
2022-11-18T22:03:55.208Z,17.92
2022-11-18T22:06:31.688Z,16.55
2022-11-18T22:09:02.334Z,14.88
2022-11-18T22:11:32.595Z,19.48
2022-11-18T22:14:02.705Z,17.83
2022-11-18T22:16:32.783Z,15.30
2022-11-18T22:19:07.998Z,15.73
2022-11-18T22:21:41.134Z,15.57
2022-11-18T22:24:12.431Z,16.65
2022-11-18T22:26:42.580Z,13.65
2022-11-18T22:29:13.125Z,18.38
2022-11-18T22:31:43.564Z,20.70
2022-11-18T22:34:14.214Z,15.40
2022-11-18T22:36:46.900Z,18.08
2022-11-18T22:39:17.930Z,19.77
2022-11-18T22:42:00.568Z,19.00
2022-11-18T22:44:30.715Z,14.95
2022-11-18T22:47:02.092Z,17.38
2022-11-18T22:49:32.155Z,15.27
2022-11-18T22:52:04.803Z,16.52
2022-11-18T22:54:39.647Z,16.60
2022-11-18T22:57:10.866Z,20.35
2022-11-18T22:59:40.871Z,50.35
2022-11-18T23:02:11.018Z,52.95
2022-11-18T23:04:41.286Z,56.70
2022-11-18T23:07:13.961Z,38.92
2022-11-18T23:09:44.180Z,50.45
2022-11-18T23:12:26.560Z,36.13
2022-11-18T23:14:56.602Z,34.42
2022-11-18T23:17:26.739Z,25.50
2022-11-18T23:19:56.992Z,30.63
2022-11-18T23:22:29.585Z,28.35
2022-11-18T23:24:59.712Z,25.25
2022-11-18T23:27:31.153Z,26.92
2022-11-18T23:30:01.175Z,22.17
2022-11-18T23:32:31.274Z,21.45
2022-11-18T23:35:01.484Z,22.67
2022-11-18T23:37:34.088Z,19.48
2022-11-18T23:40:04.118Z,19.65
2022-11-18T23:42:34.304Z,20.10
2022-11-18T23:45:05.561Z,24.30
2022-11-18T23:47:35.899Z,34.28
2022-11-18T23:50:06.305Z,97.70
2022-11-18T23:52:41.679Z,84.78
2022-11-18T23:55:12.729Z,59.80
